Time;durP1;ratioP1;P1;durP2;ratioP2;P2;SDS_P1;SDS_P2;PMS_P1;PMS_P2;Temp;Humidity;BMP_temperature;BMP_pressure;BME280_temperature;BME280_humidity;BME280_pressure;Samples;Min_cycle;Max_cycle;Signal;HPM_P1;HPM_P2
2021/10/03 00:01:29;;;;;;;;;;;;;;;13.42;74.10;95645.38;5075355;28;19953;-79
2021/10/03 00:03:55;;;;;;;;;;;;;;;13.41;74.18;95646.41;5075886;28;20351;-79
2021/10/03 00:06:23;;;;;;;;;;;;;;;13.41;75.09;95662.22;5076003;28;19956;-79
2021/10/03 00:08:50;;;;;;;;;;;;;;;13.34;74.60;95651.91;5075824;28;19961;-79
2021/10/03 00:11:16;;;;;;;;;;;;;;;13.32;74.23;95656.63;5076215;28;20336;-79
2021/10/03 00:13:42;;;;;;;;;;;;;;;13.30;74.34;95658.72;5074339;28;19977;-79
2021/10/03 00:16:08;;;;;;;;;;;;;;;13.29;74.58;95662.41;5075620;28;20007;-80
2021/10/03 00:18:35;;;;;;;;;;;;;;;13.27;74.49;95661.84;5076036;28;20008;-80
2021/10/03 00:21:01;;;;;;;;;;;;;;;13.26;74.18;95654.19;5076088;28;19958;-80
2021/10/03 00:23:29;;;;;;;;;;;;;;;13.25;74.57;95665.75;5075374;28;19962;-80
2021/10/03 00:25:55;;;;;;;;;;;;;;;13.24;74.44;95672.09;5075564;28;19957;-80
2021/10/03 00:28:21;;;;;;;;;;;;;;;13.23;74.29;95671.28;5075710;28;19956;-80
2021/10/03 00:30:47;;;;;;;;;;;;;;;13.22;74.28;95667.06;5075260;28;20380;-79
2021/10/03 00:33:14;;;;;;;;;;;;;;;13.21;74.32;95662.84;5075485;28;20012;-79
2021/10/03 00:35:40;;;;;;;;;;;;;;;13.19;74.25;95660.47;5075320;28;19953;-79
2021/10/03 00:38:07;;;;;;;;;;;;;;;13.17;74.21;95670.47;5075420;28;20323;-79
2021/10/03 00:40:34;;;;;;;;;;;;;;;13.14;74.25;95664.91;5075421;28;19956;-79
2021/10/03 00:43:01;;;;;;;;;;;;;;;13.13;74.57;95660.69;5075241;28;19962;-79
2021/10/03 00:45:27;;;;;;;;;;;;;;;13.11;74.41;95654.88;5075118;28;19953;-79
2021/10/03 00:47:53;;;;;;;;;;;;;;;13.12;74.42;95651.19;5074858;28;19959;-79
2021/10/03 00:50:19;;;;;;;;;;;;;;;13.11;74.62;95647.00;5075413;28;20013;-79
2021/10/03 00:52:46;;;;;;;;;;;;;;;13.12;74.55;95632.78;5074731;28;19984;-79
2021/10/03 00:55:13;;;;;;;;;;;;;;;13.13;74.54;95634.38;5074892;28;19960;-79
2021/10/03 00:57:42;;;;;;;;;;;;;;;13.14;75.05;95628.84;5074904;28;20340;-79
2021/10/03 01:00:09;;;;;;;;;;;;;;;13.15;74.86;95624.38;5074566;28;19955;-79
2021/10/03 01:02:36;;;;;;;;;;;;;;;13.15;74.67;95625.16;5075321;28;19962;-79
2021/10/03 01:05:02;;;;;;;;;;;;;;;13.17;74.94;95625.72;5074588;28;19964;-79
2021/10/03 01:07:28;;;;;;;;;;;;;;;13.16;75.50;95616.22;5074625;28;20430;-79
2021/10/03 01:09:54;;;;;;;;;;;;;;;13.17;75.60;95606.50;5074436;28;19959;-80
2021/10/03 01:12:20;;;;;;;;;;;;;;;13.16;75.31;95610.94;5074278;28;19972;-80
2021/10/03 01:14:46;;;;;;;;;;;;;;;13.17;75.36;95609.13;5074280;28;20432;-79
2021/10/03 01:17:12;;;;;;;;;;;;;;;13.18;74.92;95608.06;5074348;28;19963;-79
2021/10/03 01:19:38;;;;;;;;;;;;;;;13.18;75.46;95603.59;5074374;28;19968;-79
2021/10/03 01:22:04;;;;;;;;;;;;;;;13.20;75.45;95606.75;5074637;28;20337;-79
2021/10/03 01:24:33;;;;;;;;;;;;;;;13.22;75.35;95595.19;5074411;28;19954;-79
2021/10/03 01:27:00;;;;;;;;;;;;;;;13.23;75.66;95604.66;5074284;28;19963;-79
2021/10/03 01:29:26;;;;;;;;;;;;;;;13.22;75.23;95611.78;5074409;28;19960;-79
2021/10/03 01:31:52;;;;;;;;;;;;;;;13.24;75.32;95598.38;5074357;28;19966;-79
2021/10/03 01:34:18;;;;;;;;;;;;;;;13.25;74.72;95599.94;5074103;28;19959;-80
2021/10/03 01:36:44;;;;;;;;;;;;;;;13.27;75.30;95603.09;5074025;28;20416;-80
2021/10/03 01:39:10;;;;;;;;;;;;;;;13.27;74.85;95580.22;5074090;28;19990;-79
2021/10/03 01:41:37;;;;;;;;;;;;;;;13.29;74.72;95587.88;5074186;28;20416;-80
2021/10/03 01:44:03;;;;;;;;;;;;;;;13.30;74.74;95584.22;5073838;28;19970;-79
2021/10/03 01:46:29;;;;;;;;;;;;;;;13.31;74.96;95580.50;5073850;28;20322;-80
2021/10/03 01:48:55;;;;;;;;;;;;;;;13.32;75.08;95582.13;5073716;28;19960;-79
2021/10/03 01:51:21;;;;;;;;;;;;;;;13.32;74.97;95580.25;5073611;28;19988;-79
2021/10/03 01:53:48;;;;;;;;;;;;;;;13.33;74.76;95588.94;5072808;28;20429;-79
2021/10/03 01:56:15;;;;;;;;;;;;;;;13.34;74.99;95577.38;5073931;28;19955;-80
2021/10/03 01:58:46;;;;;;;;;;;;;;;13.35;74.78;95577.09;5073825;28;19967;-79
2021/10/03 02:01:15;;;;;;;;;;;;;;;13.36;74.84;95580.56;5073879;28;19959;-79
2021/10/03 02:03:41;;;;;;;;;;;;;;;13.36;74.90;95578.72;5074333;28;19949;-80
2021/10/03 02:06:07;;;;;;;;;;;;;;;13.35;74.68;95569.22;5073687;28;20436;-79
2021/10/03 02:08:32;;;;;;;;;;;;;;;13.35;74.80;95563.16;5073611;28;20016;-80
2021/10/03 02:11:00;;;;;;;;;;;;;;;13.35;75.07;95563.94;5073622;28;20424;-80
2021/10/03 02:13:26;;;;;;;;;;;;;;;13.33;75.15;95560.81;5073791;28;19976;-79
2021/10/03 02:15:52;;;;;;;;;;;;;;;13.33;74.82;95566.06;5073649;28;20323;-80
2021/10/03 02:18:19;;;;;;;;;;;;;;;13.31;74.98;95559.44;5073606;28;19954;-79
2021/10/03 02:20:45;;;;;;;;;;;;;;;13.29;75.31;95551.00;5073612;28;20298;-79
2021/10/03 02:23:12;;;;;;;;;;;;;;;13.28;75.21;95563.38;5072933;28;19998;-80
2021/10/03 02:25:43;;;;;;;;;;;;;;;13.27;75.13;95546.00;5073738;28;19957;-79
2021/10/03 02:28:10;;;;;;;;;;;;;;;13.28;75.18;95552.84;5072947;28;20416;-79
2021/10/03 02:30:37;;;;;;;;;;;;;;;13.27;75.00;95553.91;5060937;28;19965;-80
2021/10/03 02:33:03;;;;;;;;;;;;;;;13.26;75.28;95551.50;5073488;28;19973;-80
2021/10/03 02:35:29;;;;;;;;;;;;;;;13.24;75.08;95543.84;5073325;28;19964;-79
2021/10/03 02:37:55;;;;;;;;;;;;;;;13.24;74.97;95545.72;5073267;28;19955;-79
2021/10/03 02:40:21;;;;;;;;;;;;;;;13.20;74.93;95543.56;5073955;28;20383;-80
2021/10/03 02:42:47;;;;;;;;;;;;;;;13.21;74.96;95544.38;5073396;28;19966;-79
2021/10/03 02:45:13;;;;;;;;;;;;;;;13.20;75.01;95542.78;5073479;28;19960;-80
2021/10/03 02:47:39;;;;;;;;;;;;;;;13.16;75.00;95537.22;5073303;28;19959;-79
2021/10/03 02:50:05;;;;;;;;;;;;;;;13.14;74.86;95523.53;5073259;28;19988;-79
2021/10/03 02:52:31;;;;;;;;;;;;;;;13.12;75.02;95530.09;5073237;28;19981;-80
2021/10/03 02:54:57;;;;;;;;;;;;;;;13.09;75.08;95533.25;5072712;28;19967;-80
2021/10/03 02:57:23;;;;;;;;;;;;;;;13.06;75.04;95520.59;5073112;28;20328;-80
2021/10/03 02:59:49;;;;;;;;;;;;;;;13.04;75.10;95517.44;5073095;28;19991;-79
2021/10/03 03:02:15;;;;;;;;;;;;;;;13.00;75.08;95517.16;5073371;28;19962;-79
2021/10/03 03:04:41;;;;;;;;;;;;;;;12.98;75.02;95509.53;5057980;28;19963;-79
2021/10/03 03:07:07;;;;;;;;;;;;;;;12.95;75.02;95498.72;5073133;28;19997;-79
2021/10/03 03:09:33;;;;;;;;;;;;;;;12.93;75.53;95511.34;5073607;28;20000;-79
2021/10/03 03:11:58;;;;;;;;;;;;;;;12.92;75.15;95515.03;5073121;28;19957;-79
2021/10/03 03:14:24;;;;;;;;;;;;;;;12.88;74.94;95496.31;5072844;28;20383;-79
2021/10/03 03:16:51;;;;;;;;;;;;;;;12.86;75.10;95501.03;5073437;28;19959;-79
2021/10/03 03:19:17;;;;;;;;;;;;;;;12.85;75.33;95510.00;5073022;28;19961;-79
2021/10/03 03:21:43;;;;;;;;;;;;;;;12.84;75.15;95507.59;5072812;28;19965;-79
2021/10/03 03:24:10;;;;;;;;;;;;;;;12.82;75.01;95501.81;5073639;28;19962;-79
2021/10/03 03:26:36;;;;;;;;;;;;;;;12.81;75.34;95511.53;5072849;28;19952;-79
2021/10/03 03:29:02;;;;;;;;;;;;;;;12.77;75.19;95498.09;5073162;28;19962;-79
2021/10/03 03:31:28;;;;;;;;;;;;;;;12.70;75.35;95497.53;5073010;28;19976;-79
2021/10/03 03:33:54;;;;;;;;;;;;;;;12.68;75.31;95496.19;5072981;28;20413;-79
2021/10/03 03:36:20;;;;;;;;;;;;;;;12.66;75.40;95499.09;5076270;28;19955;-79
2021/10/03 03:38:46;;;;;;;;;;;;;;;12.67;75.32;95502.50;5076916;28;20591;-79
2021/10/03 03:41:12;;;;;;;;;;;;;;;12.67;75.40;95513.03;5076326;28;19959;-80
2021/10/03 03:43:39;;;;;;;;;;;;;;;12.64;75.61;95503.81;5076731;28;19964;-79
2021/10/03 03:46:05;;;;;;;;;;;;;;;12.63;75.62;95496.19;5076625;28;19949;-79
2021/10/03 03:48:31;;;;;;;;;;;;;;;12.59;75.54;95504.56;5076264;28;19968;-79
2021/10/03 03:50:57;;;;;;;;;;;;;;;12.58;75.59;95521.41;5076045;28;20006;-79
2021/10/03 03:53:23;;;;;;;;;;;;;;;12.56;76.14;95489.28;5076131;28;20437;-80
2021/10/03 03:55:49;;;;;;;;;;;;;;;12.49;75.96;95517.63;5076162;28;20009;-80
2021/10/03 03:58:15;;;;;;;;;;;;;;;12.46;76.08;95494.47;5075078;28;20005;-80
2021/10/03 04:00:40;;;;;;;;;;;;;;;12.40;76.01;95477.09;5075978;28;20015;-80
2021/10/03 04:03:06;;;;;;;;;;;;;;;12.39;76.45;95494.72;5076107;28;20058;-79
2021/10/03 04:05:32;;;;;;;;;;;;;;;12.38;76.75;95489.69;5075933;28;19957;-79
2021/10/03 04:07:58;;;;;;;;;;;;;;;12.41;76.57;95489.22;5075715;28;20317;-79
2021/10/03 04:10:24;;;;;;;;;;;;;;;12.41;76.24;95483.13;5075586;28;20402;-80
2021/10/03 04:12:50;;;;;;;;;;;;;;;12.41;76.54;95483.94;5075579;28;20415;-80
2021/10/03 04:15:16;;;;;;;;;;;;;;;12.42;76.48;95490.78;5075608;28;19961;-79
2021/10/03 04:17:42;;;;;;;;;;;;;;;12.42;76.42;95474.22;5075624;28;19953;-79
2021/10/03 04:20:08;;;;;;;;;;;;;;;12.41;76.62;95494.47;5076130;28;19953;-79
2021/10/03 04:22:35;;;;;;;;;;;;;;;12.41;75.41;95485.75;5075450;28;20332;-80
2021/10/03 04:25:02;;;;;;;;;;;;;;;12.34;76.31;95486.78;5075991;28;20334;-80
2021/10/03 04:27:28;;;;;;;;;;;;;;;12.34;76.95;95493.88;5075387;28;19953;-80
2021/10/03 04:29:54;;;;;;;;;;;;;;;12.34;76.48;95478.88;5075742;28;20041;-79
2021/10/03 04:32:20;;;;;;;;;;;;;;;12.29;76.29;95468.34;5075457;28;20416;-80
2021/10/03 04:34:45;;;;;;;;;;;;;;;12.28;76.31;95484.38;5075603;28;19960;-80
2021/10/03 04:37:11;;;;;;;;;;;;;;;12.30;76.58;95459.41;5075224;28;19957;-79
2021/10/03 04:39:37;;;;;;;;;;;;;;;12.25;76.59;95462.00;5075474;28;19961;-80
2021/10/03 04:42:03;;;;;;;;;;;;;;;12.24;77.10;95480.66;5075263;28;20049;-79
2021/10/03 04:44:29;;;;;;;;;;;;;;;12.24;76.54;95476.22;5075363;28;20041;-79
2021/10/03 04:46:55;;;;;;;;;;;;;;;12.26;76.52;95475.94;5074402;28;19966;-79
2021/10/03 04:49:21;;;;;;;;;;;;;;;12.29;76.50;95470.19;5074986;28;19966;-79
2021/10/03 04:51:47;;;;;;;;;;;;;;;12.31;76.92;95465.47;5075992;28;20074;-79
2021/10/03 04:54:13;;;;;;;;;;;;;;;12.34;77.23;95483.34;5074740;28;20021;-79
2021/10/03 04:56:39;;;;;;;;;;;;;;;12.36;77.16;95476.00;5075278;28;19963;-79
2021/10/03 04:59:04;;;;;;;;;;;;;;;12.36;77.04;95476.78;5074841;28;19978;-80
2021/10/03 05:01:32;;;;;;;;;;;;;;;12.38;76.77;95477.34;5074133;28;20216;-79
2021/10/03 05:03:58;;;;;;;;;;;;;;;12.38;76.88;95482.59;5074769;28;20330;-79
2021/10/03 05:06:25;;;;;;;;;;;;;;;12.38;77.16;95481.81;5075233;28;19964;-80
2021/10/03 05:08:51;;;;;;;;;;;;;;;12.38;77.28;95484.44;5074317;28;19963;-79
2021/10/03 05:11:17;;;;;;;;;;;;;;;12.37;77.09;95473.13;5074975;28;19963;-79
2021/10/03 05:13:43;;;;;;;;;;;;;;;12.37;77.37;95472.34;5074630;28;19970;-79
2021/10/03 05:16:09;;;;;;;;;;;;;;;12.36;77.23;95492.56;5074554;28;19964;-79
2021/10/03 05:18:37;;;;;;;;;;;;;;;12.33;76.89;95464.16;5074324;28;19961;-79
2021/10/03 05:21:04;;;;;;;;;;;;;;;12.31;77.14;95481.25;5074782;28;19963;-79
2021/10/03 05:23:29;;;;;;;;;;;;;;;12.30;77.18;95483.06;5074569;28;19963;-79
2021/10/03 05:25:55;;;;;;;;;;;;;;;12.28;77.39;95472.00;5074076;28;19956;-80
2021/10/03 05:28:21;;;;;;;;;;;;;;;12.29;77.39;95465.72;5073264;28;19958;-79
2021/10/03 05:30:47;;;;;;;;;;;;;;;12.30;77.00;95461.25;5073060;28;19960;-80
2021/10/03 05:33:13;;;;;;;;;;;;;;;12.31;77.19;95471.50;5073981;28;20017;-79
2021/10/03 05:35:39;;;;;;;;;;;;;;;12.32;76.83;95486.22;5074776;28;20405;-79
2021/10/03 05:38:05;;;;;;;;;;;;;;;12.32;75.90;95453.91;5074414;28;20361;-80
2021/10/03 05:40:31;;;;;;;;;;;;;;;12.30;76.89;95467.28;5074137;28;19957;-80
2021/10/03 05:42:57;;;;;;;;;;;;;;;12.32;76.70;95478.34;5073969;28;19965;-80
2021/10/03 05:45:23;;;;;;;;;;;;;;;12.30;76.13;95446.25;5074127;28;20061;-80
2021/10/03 05:47:49;;;;;;;;;;;;;;;12.31;76.69;95462.84;5073920;28;20012;-80
2021/10/03 05:50:15;;;;;;;;;;;;;;;12.34;76.58;95492.03;5074560;28;19987;-79
2021/10/03 05:52:41;;;;;;;;;;;;;;;12.39;76.55;95478.94;5074163;28;19970;-79
2021/10/03 05:55:07;;;;;;;;;;;;;;;12.43;76.81;95468.72;5074532;28;20338;-79
2021/10/03 05:57:33;;;;;;;;;;;;;;;12.47;76.27;95477.66;5073255;28;19960;-79
2021/10/03 05:59:59;;;;;;;;;;;;;;;12.53;76.48;95476.63;5072494;28;19986;-80
2021/10/03 06:02:25;;;;;;;;;;;;;;;12.60;76.05;95468.56;5073694;28;19964;-79
2021/10/03 06:04:51;;;;;;;;;;;;;;;12.66;77.20;95491.22;5074051;28;19963;-79
2021/10/03 06:07:16;;;;;;;;;;;;;;;12.77;76.65;95471.00;5074027;28;20019;-79
2021/10/03 06:09:42;;;;;;;;;;;;;;;12.87;76.14;95457.91;5073461;28;20011;-80
2021/10/03 06:12:08;;;;;;;;;;;;;;;13.10;76.60;95469.03;5073688;28;19961;-80
2021/10/03 06:14:34;;;;;;;;;;;;;;;13.35;75.99;95473.63;5073534;28;20376;-79
2021/10/03 06:17:00;;;;;;;;;;;;;;;13.44;75.32;95485.25;5073490;28;20011;-79
2021/10/03 06:19:26;;;;;;;;;;;;;;;13.55;75.45;95475.53;5073632;28;19964;-79
2021/10/03 06:21:52;;;;;;;;;;;;;;;13.60;75.33;95475.53;5073699;28;20059;-80
2021/10/03 06:24:18;;;;;;;;;;;;;;;13.62;75.63;95486.59;5073817;28;20001;-79
2021/10/03 06:26:47;;;;;;;;;;;;;;;13.65;75.43;95485.28;5073669;28;19960;-80
2021/10/03 06:29:13;;;;;;;;;;;;;;;13.68;75.20;95482.94;5073125;28;20351;-79
2021/10/03 06:31:39;;;;;;;;;;;;;;;13.72;75.80;95488.47;5073854;28;19969;-80
2021/10/03 06:34:05;;;;;;;;;;;;;;;13.73;74.55;95469.78;5073441;28;19972;-79
2021/10/03 06:36:31;;;;;;;;;;;;;;;13.77;75.23;95499.81;5073474;28;19972;-80
2021/10/03 06:38:57;;;;;;;;;;;;;;;13.80;76.14;95475.56;5073279;28;20140;-79
2021/10/03 06:41:23;;;;;;;;;;;;;;;13.84;76.43;95483.75;5073568;28;19954;-79
2021/10/03 06:43:49;;;;;;;;;;;;;;;13.88;76.14;95482.19;5073379;28;19960;-79
2021/10/03 06:46:16;;;;;;;;;;;;;;;13.90;75.19;95469.53;5072021;28;19961;-80
2021/10/03 06:48:42;;;;;;;;;;;;;;;13.92;75.99;95498.25;5073399;28;19979;-79
2021/10/03 06:51:08;;;;;;;;;;;;;;;13.93;75.01;95473.47;5073169;28;20512;-79
2021/10/03 06:53:34;;;;;;;;;;;;;;;13.94;76.66;95502.22;5073209;28;19982;-79
2021/10/03 06:56:03;;;;;;;;;;;;;;;13.93;77.18;95478.75;5073422;28;19963;-79
2021/10/03 06:58:29;;;;;;;;;;;;;;;13.94;76.20;95480.31;5072598;28;19958;-79
2021/10/03 07:00:55;;;;;;;;;;;;;;;13.94;75.66;95481.13;5072991;28;19953;-79
2021/10/03 07:03:21;;;;;;;;;;;;;;;13.96;74.79;95472.94;5073228;28;20014;-79
2021/10/03 07:05:46;;;;;;;;;;;;;;;13.99;76.49;95485.63;5073221;28;19961;-79
2021/10/03 07:08:12;;;;;;;;;;;;;;;14.01;75.27;95484.28;5073270;28;20472;-79
2021/10/03 07:10:39;;;;;;;;;;;;;;;14.04;75.84;95495.38;5076036;28;20028;-79
2021/10/03 07:13:05;;;;;;;;;;;;;;;14.06;75.26;95486.13;5076934;28;19972;-79
2021/10/03 07:15:32;;;;;;;;;;;;;;;14.09;76.14;95498.81;5076761;28;19960;-79
2021/10/03 07:17:58;;;;;;;;;;;;;;;14.13;76.00;95499.84;5076872;28;19960;-79
2021/10/03 07:20:24;;;;;;;;;;;;;;;14.18;75.02;95501.69;5076877;28;20055;-79
2021/10/03 07:22:50;;;;;;;;;;;;;;;14.24;75.13;95490.09;5076572;28;19961;-79
2021/10/03 07:25:16;;;;;;;;;;;;;;;14.30;73.64;95502.22;5077003;28;20046;-79
2021/10/03 07:27:42;;;;;;;;;;;;;;;14.37;74.46;95508.03;5076557;28;20014;-79
2021/10/03 07:30:08;;;;;;;;;;;;;;;14.43;74.02;95498.28;5076743;28;20436;-79
2021/10/03 07:32:34;;;;;;;;;;;;;;;14.48;73.72;95508.81;5077039;28;20010;-79
2021/10/03 07:35:00;;;;;;;;;;;;;;;14.52;75.51;95491.38;5076516;28;20027;-79
2021/10/03 07:37:26;;;;;;;;;;;;;;;14.55;73.83;95498.81;5076714;28;19968;-79
2021/10/03 07:39:51;;;;;;;;;;;;;;;14.57;73.86;95494.06;5076739;28;19965;-79
2021/10/03 07:42:17;;;;;;;;;;;;;;;14.64;74.60;95499.06;5075969;28;20389;-80
2021/10/03 07:44:43;;;;;;;;;;;;;;;14.70;73.97;95484.00;5076741;28;20035;-79
2021/10/03 07:47:09;;;;;;;;;;;;;;;14.76;72.63;95486.38;5076131;28;20010;-79
2021/10/03 07:49:35;;;;;;;;;;;;;;;14.84;73.07;95490.28;5074991;28;19959;-80
2021/10/03 07:52:02;;;;;;;;;;;;;;;14.92;73.38;95478.41;5076376;28;19992;-79
2021/10/03 07:54:28;;;;;;;;;;;;;;;14.99;73.78;95490.28;5076497;28;20450;-79
2021/10/03 07:56:54;;;;;;;;;;;;;;;15.06;73.82;95497.13;5076176;28;19968;-79
2021/10/03 07:59:20;;;;;;;;;;;;;;;15.10;73.42;95480.47;5076008;28;19964;-79
2021/10/03 08:01:45;;;;;;;;;;;;;;;15.18;72.64;95487.00;5076018;28;20009;-79
2021/10/03 08:04:11;;;;;;;;;;;;;;;15.26;74.01;95486.47;5075926;28;20409;-80
2021/10/03 08:06:37;;;;;;;;;;;;;;;15.34;71.36;95485.13;5075795;28;20409;-79
2021/10/03 08:09:03;;;;;;;;;;;;;;;15.42;71.53;95498.53;5076250;28;19960;-79
2021/10/03 08:11:29;;;;;;;;;;;;;;;15.48;71.20;95494.03;5076029;28;19965;-79
2021/10/03 08:13:55;;;;;;;;;;;;;;;15.56;71.76;95504.03;5075763;28;20058;-79
2021/10/03 08:16:21;;;;;;;;;;;;;;;15.65;72.76;95496.31;5076277;28;20046;-79
2021/10/03 08:18:48;;;;;;;;;;;;;;;15.73;71.02;95501.06;5075704;28;20331;-79
2021/10/03 08:21:14;;;;;;;;;;;;;;;15.83;69.67;95494.91;5074806;28;19962;-79
2021/10/03 08:23:40;;;;;;;;;;;;;;;15.91;70.00;95502.25;5075737;28;19994;-79
2021/10/03 08:26:06;;;;;;;;;;;;;;;15.99;70.64;95492.97;5075721;28;19978;-79
2021/10/03 08:28:32;;;;;;;;;;;;;;;16.05;70.23;95499.78;5075504;28;19975;-79
2021/10/03 08:30:58;;;;;;;;;;;;;;;16.10;70.46;95510.31;5075732;28;19980;-79
2021/10/03 08:33:24;;;;;;;;;;;;;;;16.12;68.82;95491.53;5075521;28;19972;-79
2021/10/03 08:35:50;;;;;;;;;;;;;;;16.14;69.69;95514.00;5075406;28;19956;-79
2021/10/03 08:38:16;;;;;;;;;;;;;;;16.14;69.63;95484.13;5075157;28;19971;-79
2021/10/03 08:40:42;;;;;;;;;;;;;;;16.15;70.40;95509.53;5075617;28;19965;-79
2021/10/03 08:43:08;;;;;;;;;;;;;;;16.13;70.09;95530.16;5073949;28;20136;-79
2021/10/03 08:45:38;;;;;;;;;;;;;;;16.10;69.39;95517.47;5075291;28;20360;-79
2021/10/03 08:48:05;;;;;;;;;;;;;;;16.08;68.96;95501.88;5075278;28;19982;-79
2021/10/03 08:50:31;;;;;;;;;;;;;;;16.09;70.18;95518.56;5075245;28;19988;-79
2021/10/03 08:52:56;;;;;;;;;;;;;;;16.07;69.02;95502.16;5075091;28;19963;-79
2021/10/03 08:55:22;;;;;;;;;;;;;;;16.07;69.24;95500.31;5074873;28;19980;-80
2021/10/03 08:57:48;;;;;;;;;;;;;;;16.10;69.93;95485.75;5074134;28;20336;-79
2021/10/03 09:00:17;;;;;;;;;;;;;;;16.10;70.41;95497.09;5075135;28;19973;-79
2021/10/03 09:02:56;;;;;;;;;;;;;;;16.11;70.96;95493.41;5074810;28;19963;-79
2021/10/03 09:05:23;;;;;;;;;;;;;;;16.12;70.84;95491.53;5074824;28;19962;-79
2021/10/03 09:07:59;;;;;;;;;;;;;;;16.15;70.46;95485.72;5074540;28;19971;-79
2021/10/03 09:10:26;;;;;;;;;;;;;;;16.16;69.43;95479.34;5074556;28;19955;-79
2021/10/03 09:12:55;;;;;;;;;;;;;;;16.20;69.86;95486.44;5074478;28;19959;-79
2021/10/03 09:15:21;;;;;;;;;;;;;;;16.21;69.07;95490.69;5074485;28;19973;-79
2021/10/03 09:17:51;;;;;;;;;;;;;;;16.24;68.78;95481.41;5074425;28;19982;-79
2021/10/03 09:20:18;;;;;;;;;;;;;;;16.32;69.24;95490.59;5074948;28;19959;-79
2021/10/03 09:22:53;;;;;;;;;;;;;;;16.38;68.86;95478.91;5074429;28;19966;-79
2021/10/03 09:25:32;;;;;;;;;;;;;;;16.43;69.32;95489.44;5074593;28;19952;-79
2021/10/03 09:27:58;;;;;;;;;;;;;;;16.50;67.60;95468.72;5074469;28;19963;-79
2021/10/03 09:30:24;;;;;;;;;;;;;;;16.58;68.08;95480.56;5074047;28;19963;-79
2021/10/03 09:32:57;;;;;;;;;;;;;;;16.62;68.46;95490.31;5074347;28;19989;-79
2021/10/03 09:35:24;;;;;;;;;;;;;;;16.66;68.88;95485.25;5073983;28;19972;-80
2021/10/03 09:37:50;;;;;;;;;;;;;;;16.71;69.22;95487.06;5074653;28;19955;-79
2021/10/03 09:40:16;;;;;;;;;;;;;;;16.74;69.26;95495.25;5073881;28;20006;-79
2021/10/03 09:42:53;;;;;;;;;;;;;;;16.78;69.55;95490.19;5074053;28;19970;-79
2021/10/03 09:45:23;;;;;;;;;;;;;;;16.80;70.13;95491.50;5072859;28;19958;-79
2021/10/03 09:48:06;;;;;;;;;;;;;;;16.84;70.55;95497.81;5074619;28;19966;-79
2021/10/03 09:50:34;;;;;;;;;;;;;;;16.90;68.99;95485.28;5061120;28;20011;-80
2021/10/03 09:53:00;;;;;;;;;;;;;;;16.95;69.33;95477.31;5073782;28;20449;-79
2021/10/03 09:55:26;;;;;;;;;;;;;;;17.05;70.12;95481.72;5074007;28;19970;-79
2021/10/03 09:57:54;;;;;;;;;;;;;;;17.11;69.51;95483.22;5073666;28;20027;-79
2021/10/03 10:00:20;;;;;;;;;;;;;;;17.19;69.64;95485.22;5074021;28;19955;-79
2021/10/03 10:02:47;;;;;;;;;;;;;;;17.27;67.37;95477.75;5074288;28;20345;-79
2021/10/03 10:05:13;;;;;;;;;;;;;;;17.34;68.82;95494.06;5073743;28;19966;-79
2021/10/03 10:07:39;;;;;;;;;;;;;;;17.36;66.05;95479.47;5073844;28;19971;-79
2021/10/03 10:10:06;;;;;;;;;;;;;;;17.40;67.00;95493.72;5073583;28;19982;-79
2021/10/03 10:12:34;;;;;;;;;;;;;;;17.41;66.47;95492.66;5073789;28;20423;-79
2021/10/03 10:15:02;;;;;;;;;;;;;;;17.45;67.37;95482.28;5073417;28;19975;-79
2021/10/03 10:17:29;;;;;;;;;;;;;;;17.48;68.00;95507.44;5073390;28;20479;-79
2021/10/03 10:19:56;;;;;;;;;;;;;;;17.48;68.03;95489.66;5074117;28;19983;-79
2021/10/03 10:22:28;;;;;;;;;;;;;;;17.53;67.10;95480.84;5073368;28;19962;-79
2021/10/03 10:24:55;;;;;;;;;;;;;;;17.56;66.42;95491.69;5073489;28;20318;-79
2021/10/03 10:27:21;;;;;;;;;;;;;;;17.62;68.03;95498.50;5073808;28;19968;-79
2021/10/03 10:30:00;;;;;;;;;;;;;;;17.65;66.75;95500.56;5073493;28;19959;-79
2021/10/03 10:32:26;;;;;;;;;;;;;;;17.70;67.30;95490.97;5073660;28;19976;-79
2021/10/03 10:35:07;;;;;;;;;;;;;;;17.73;64.76;95464.66;5073326;28;19971;-80
2021/10/03 10:37:54;;;;;;;;;;;;;;;17.75;66.76;95502.28;5073365;28;19967;-79
2021/10/03 10:40:20;;;;;;;;;;;;;;;17.74;68.60;95487.44;5073811;28;19958;-79
2021/10/03 10:42:51;;;;;;;;;;;;;;;17.77;67.39;95488.75;5073328;28;20302;-79
2021/10/03 10:45:36;;;;;;;;;;;;;;;17.77;68.30;95494.06;5075959;28;19968;-79
2021/10/03 10:48:10;;;;;;;;;;;;;;;17.79;67.53;95498.00;5077339;28;19965;-79
2021/10/03 10:50:40;;;;;;;;;;;;;;;17.80;65.94;95473.03;5077293;28;19990;-79
2021/10/03 10:53:15;;;;;;;;;;;;;;;17.82;66.73;95491.31;5077308;28;19956;-79
2021/10/03 10:55:42;;;;;;;;;;;;;;;17.84;67.58;95492.63;5077198;28;20360;-79
2021/10/03 10:58:09;;;;;;;;;;;;;;;17.86;67.72;95481.75;5077094;28;19960;-80
2021/10/03 11:00:58;;;;;;;;;;;;;;;17.87;68.72;95493.94;5077220;28;19966;-79
2021/10/03 11:03:44;;;;;;;;;;;;;;;17.89;67.50;95477.72;5077418;28;19958;-79
2021/10/03 11:06:11;;;;;;;;;;;;;;;17.92;68.95;95495.72;5065543;28;19963;-80
2021/10/03 11:08:56;;;;;;;;;;;;;;;17.96;68.67;95494.84;5077230;28;20447;-79
2021/10/03 11:11:31;;;;;;;;;;;;;;;18.02;67.79;95485.75;5062929;28;19963;-79
2021/10/03 11:13:58;;;;;;;;;;;;;;;18.09;68.69;95503.19;5075701;28;19980;-79
2021/10/03 11:16:36;;;;;;;;;;;;;;;18.15;67.12;95480.78;5076679;28;19962;-79
2021/10/03 11:19:06;;;;;;;;;;;;;;;18.20;67.59;95486.78;5065977;28;19958;-79
2021/10/03 11:21:33;;;;;;;;;;;;;;;18.24;67.41;95482.47;5076503;28;19958;-80
2021/10/03 11:24:00;;;;;;;;;;;;;;;18.26;66.26;95467.06;5076619;28;19960;-79
2021/10/03 11:26:26;;;;;;;;;;;;;;;18.31;65.96;95458.25;5076584;28;19957;-79
2021/10/03 11:28:56;;;;;;;;;;;;;;;18.33;64.88;95453.44;5076623;28;19968;-79
2021/10/03 11:31:52;;;;;;;;;;;;;;;18.38;66.07;95463.94;5076837;28;20296;-79
2021/10/03 11:34:25;;;;;;;;;;;;;;;18.43;65.23;95447.16;5071569;28;19968;-79
2021/10/03 11:36:52;;;;;;;;;;;;;;;18.47;66.43;95442.81;5076397;28;20432;-79
2021/10/03 11:39:31;;;;;;;;;;;;;;;18.52;64.91;95436.63;5076260;28;19975;-79
2021/10/03 11:41:57;;;;;;;;;;;;;;;18.59;65.72;95442.38;5076227;28;19964;-79
2021/10/03 11:44:23;;;;;;;;;;;;;;;18.70;65.51;95427.81;5076699;28;19962;-79
2021/10/03 11:46:57;;;;;;;;;;;;;;;18.82;64.29;95420.19;5076355;28;19963;-79
2021/10/03 11:49:23;;;;;;;;;;;;;;;18.94;64.03;95425.00;5076527;28;19970;-79
2021/10/03 11:51:49;;;;;;;;;;;;;;;19.01;64.17;95428.03;5076050;28;20345;-79
2021/10/03 11:54:15;;;;;;;;;;;;;;;19.07;62.72;95415.44;5075987;28;19976;-79
2021/10/03 11:56:41;;;;;;;;;;;;;;;19.09;62.68;95417.78;5076006;28;19962;-79
2021/10/03 11:59:07;;;;;;;;;;;;;;;19.11;63.26;95405.78;5075940;28;20042;-79
2021/10/03 12:01:33;;;;;;;;;;;;;;;19.17;62.94;95412.59;5076112;28;20001;-79
2021/10/03 12:03:59;;;;;;;;;;;;;;;19.26;62.08;95400.16;5075875;28;20448;-79
2021/10/03 12:06:30;;;;;;;;;;;;;;;19.37;61.79;95402.59;5075823;28;20332;-79
2021/10/03 12:08:56;;;;;;;;;;;;;;;19.44;61.11;95405.63;5075577;28;20008;-79
2021/10/03 12:11:22;;;;;;;;;;;;;;;19.50;58.65;95383.16;5076147;28;20406;-79
2021/10/03 12:13:56;;;;;;;;;;;;;;;19.55;60.76;95414.97;5075653;28;20119;-78
2021/10/03 12:16:21;;;;;;;;;;;;;;;19.62;59.02;95398.59;5075724;28;19959;-79
2021/10/03 12:18:49;;;;;;;;;;;;;;;19.67;59.40;95399.25;5075871;28;19959;-79
2021/10/03 12:21:18;;;;;;;;;;;;;;;19.74;60.17;95416.69;5075604;28;19966;-79
2021/10/03 12:23:47;;;;;;;;;;;;;;;19.78;61.14;95434.41;5075909;28;19980;-79
2021/10/03 12:26:17;;;;;;;;;;;;;;;19.84;59.82;95421.75;5075651;28;19958;-79
2021/10/03 12:29:02;;;;;;;;;;;;;;;19.88;59.40;95414.75;5075533;28;19962;-79
2021/10/03 12:31:45;;;;;;;;;;;;;;;19.92;60.07;95433.56;5075627;28;19955;-79
2021/10/03 12:34:17;;;;;;;;;;;;;;;19.96;59.35;95430.00;5068064;28;20330;-78
2021/10/03 12:36:48;;;;;;;;;;;;;;;19.98;61.55;95446.44;5075980;28;20074;-79
2021/10/03 12:39:15;;;;;;;;;;;;;;;19.99;60.47;95449.88;5075623;28;19967;-79
2021/10/03 12:41:41;;;;;;;;;;;;;;;19.95;60.17;95444.41;5075201;28;19968;-79
2021/10/03 12:44:07;;;;;;;;;;;;;;;19.92;59.61;95449.53;5075351;28;19970;-79
2021/10/03 12:46:34;;;;;;;;;;;;;;;19.88;62.22;95470.63;5075007;28;19971;-79
2021/10/03 12:49:00;;;;;;;;;;;;;;;19.83;61.74;95449.47;5075233;28;20419;-80